createdAt,value
2018-08-10T00:02:04.998Z,97428.00
2018-08-10T00:04:35.367Z,97422.00
2018-08-10T00:07:05.875Z,97427.00
2018-08-10T00:09:36.774Z,97429.00
2018-08-10T00:12:07.101Z,97433.00
2018-08-10T00:14:37.542Z,97434.00
2018-08-10T00:17:08.060Z,97435.00
2018-08-10T00:19:38.523Z,97442.00
2018-08-10T00:22:08.951Z,97433.00
2018-08-10T00:24:39.535Z,97430.00
2018-08-10T00:27:10.103Z,97429.00
2018-08-10T00:29:40.763Z,97436.00
2018-08-10T00:32:11.178Z,97440.00
2018-08-10T00:34:41.575Z,97435.00
2018-08-10T00:37:11.847Z,97442.00
2018-08-10T00:39:42.147Z,97451.00
2018-08-10T00:42:12.536Z,97454.00
2018-08-10T00:44:43.107Z,97456.00
2018-08-10T00:47:13.430Z,97455.00
2018-08-10T00:49:43.923Z,97459.00
2018-08-10T00:52:14.255Z,97462.00
2018-08-10T00:54:44.623Z,97464.00
2018-08-10T00:57:15.078Z,97467.00
2018-08-10T00:59:45.492Z,97470.00
2018-08-10T01:02:15.850Z,97470.00
2018-08-10T01:04:46.391Z,97466.00
2018-08-10T01:07:16.730Z,97470.00
2018-08-10T01:09:47.162Z,97469.00
2018-08-10T01:12:17.759Z,97477.00
2018-08-10T01:14:48.294Z,97471.00
2018-08-10T01:17:18.886Z,97476.00
2018-08-10T01:19:49.706Z,97477.00
2018-08-10T01:22:20.314Z,97478.00
2018-08-10T01:24:51.479Z,97482.00
2018-08-10T01:27:26.822Z,97485.00
2018-08-10T01:29:57.168Z,97485.00
2018-08-10T01:32:27.545Z,97489.00
2018-08-10T01:34:57.928Z,97493.00
2018-08-10T01:37:28.418Z,97496.00
2018-08-10T01:39:58.599Z,97496.00
2018-08-10T01:42:28.938Z,97504.00
2018-08-10T01:44:59.364Z,97505.00
2018-08-10T01:47:29.735Z,97515.00
2018-08-10T01:50:00.162Z,97518.00
2018-08-10T01:52:30.557Z,97522.00
2018-08-10T01:55:00.965Z,97531.00
2018-08-10T01:57:31.590Z,97533.00
2018-08-10T02:00:02.222Z,97533.00
2018-08-10T02:02:32.661Z,97538.00
2018-08-10T02:05:02.998Z,97546.00
2018-08-10T02:07:36.760Z,97550.00
2018-08-10T02:10:10.664Z,97551.00
2018-08-10T02:12:41.875Z,97556.00
2018-08-10T02:15:14.820Z,97559.00
2018-08-10T02:17:45.488Z,97561.00
2018-08-10T02:20:17.311Z,97559.00
2018-08-10T02:22:47.904Z,97565.00
2018-08-10T02:25:19.690Z,97564.00
2018-08-10T02:27:50.919Z,97578.00
2018-08-10T02:30:22.250Z,97577.00
2018-08-10T02:32:52.972Z,97584.00
2018-08-10T02:35:23.266Z,97580.00
2018-08-10T02:37:53.699Z,97584.00
2018-08-10T02:40:24.390Z,97588.00
2018-08-10T02:42:54.867Z,97585.00
2018-08-10T02:45:25.303Z,97596.00
2018-08-10T02:47:55.870Z,97596.00
2018-08-10T02:50:26.403Z,97603.00
2018-08-10T02:52:56.858Z,97601.00
2018-08-10T02:55:27.416Z,97614.00
2018-08-10T02:57:58.135Z,97624.00
2018-08-10T03:00:28.436Z,97634.00
2018-08-10T03:02:58.829Z,97636.00
2018-08-10T03:05:29.331Z,97643.00
2018-08-10T03:07:59.760Z,97642.00
2018-08-10T03:10:30.247Z,97651.00
2018-08-10T03:13:00.723Z,97659.00
2018-08-10T03:15:31.139Z,97663.00
2018-08-10T03:18:01.663Z,97669.00
2018-08-10T03:20:31.971Z,97666.00
2018-08-10T03:23:02.399Z,97667.00
2018-08-10T03:25:32.686Z,97673.00
2018-08-10T03:28:03.159Z,97682.00
2018-08-10T03:30:33.490Z,97690.00
2018-08-10T03:33:03.929Z,97693.00
2018-08-10T03:35:34.296Z,97699.00
2018-08-10T03:38:04.632Z,97695.00
2018-08-10T03:40:34.956Z,97697.00
2018-08-10T03:43:05.379Z,97711.00
2018-08-10T03:45:35.786Z,97707.00
2018-08-10T03:48:06.304Z,97708.00
2018-08-10T03:50:36.573Z,97707.00
2018-08-10T03:53:07.219Z,97717.00
2018-08-10T03:55:37.588Z,97720.00
2018-08-10T03:58:08.076Z,97721.00
2018-08-10T04:00:38.618Z,97716.00
2018-08-10T04:03:09.271Z,97726.00
2018-08-10T04:05:39.703Z,97731.00
2018-08-10T04:08:10.333Z,97734.00
2018-08-10T04:10:40.848Z,97736.00
2018-08-10T04:13:11.309Z,97743.00
2018-08-10T04:15:41.914Z,97746.00
2018-08-10T04:18:12.259Z,97752.00
2018-08-10T04:20:42.636Z,97751.00
2018-08-10T04:23:12.951Z,97757.00
2018-08-10T04:25:43.266Z,97763.00
2018-08-10T04:28:13.677Z,97755.00
2018-08-10T04:30:44.270Z,97766.00
2018-08-10T04:33:14.541Z,97770.00
2018-08-10T04:35:45.084Z,97778.00
2018-08-10T04:38:15.742Z,97780.00
2018-08-10T04:40:46.292Z,97776.00
2018-08-10T04:43:16.823Z,97783.00
2018-08-10T04:45:47.208Z,97784.00
2018-08-10T04:48:17.565Z,97781.00
2018-08-10T04:50:47.826Z,97787.00
2018-08-10T04:53:18.214Z,97792.00
2018-08-10T04:55:48.712Z,97793.00
2018-08-10T04:58:19.249Z,97799.00
2018-08-10T05:00:49.603Z,97796.00
2018-08-10T05:03:19.938Z,97797.00
2018-08-10T05:05:50.330Z,97797.00
2018-08-10T05:08:20.661Z,97810.00
2018-08-10T05:10:51.070Z,97805.00
2018-08-10T05:13:21.412Z,97814.00
2018-08-10T05:15:51.861Z,97818.00
2018-08-10T05:18:22.211Z,97818.00
2018-08-10T05:20:52.672Z,97822.00
2018-08-10T05:23:23.179Z,97824.00
2018-08-10T05:25:53.707Z,97825.00
2018-08-10T05:28:24.164Z,97825.00
2018-08-10T05:30:54.472Z,97826.00
2018-08-10T05:33:24.910Z,97838.00
2018-08-10T05:35:55.333Z,97841.00
2018-08-10T05:38:25.888Z,97839.00
2018-08-10T05:40:56.405Z,97845.00
2018-08-10T05:43:28.682Z,97853.00
2018-08-10T05:45:59.211Z,97857.00
2018-08-10T05:48:33.426Z,97857.00
2018-08-10T05:51:03.923Z,97858.00
2018-08-10T05:53:34.183Z,97866.00
2018-08-10T05:56:04.539Z,97866.00
2018-08-10T05:58:35.022Z,97865.00
2018-08-10T06:01:05.923Z,97864.00
2018-08-10T06:03:36.215Z,97868.00
2018-08-10T06:06:06.798Z,97873.00
2018-08-10T06:08:37.080Z,97873.00
2018-08-10T06:11:07.789Z,97875.00
2018-08-10T06:13:38.301Z,97881.00
2018-08-10T06:16:08.738Z,97876.00
2018-08-10T06:18:39.364Z,97874.00
2018-08-10T06:21:09.854Z,97874.00
2018-08-10T06:23:40.466Z,97871.00
2018-08-10T06:26:11.155Z,97870.00
2018-08-10T06:28:41.747Z,97877.00
2018-08-10T06:31:12.123Z,97881.00
2018-08-10T06:33:42.621Z,97875.00
2018-08-10T06:36:13.135Z,97870.00
2018-08-10T06:38:43.579Z,97874.00
2018-08-10T06:41:13.946Z,97875.00
2018-08-10T06:43:44.419Z,97879.00
2018-08-10T06:46:14.954Z,97885.00
2018-08-10T06:48:45.383Z,97879.00
2018-08-10T06:51:15.866Z,97878.00
2018-08-10T06:53:46.328Z,97885.00
2018-08-10T06:56:16.774Z,97883.00
2018-08-10T06:58:47.438Z,97888.00
2018-08-10T07:01:17.630Z,97892.00
2018-08-10T07:03:48.117Z,97891.00
2018-08-10T07:06:18.505Z,97889.00
2018-08-10T07:08:48.951Z,97891.00
2018-08-10T07:11:19.226Z,97887.00
2018-08-10T07:13:49.530Z,97882.00
2018-08-10T07:16:19.806Z,97890.00
2018-08-10T07:18:50.271Z,97887.00
2018-08-10T07:21:20.513Z,97880.00
2018-08-10T07:23:50.529Z,97887.00
2018-08-10T07:26:20.481Z,97890.00
2018-08-10T07:28:50.497Z,97885.00
2018-08-10T07:31:20.513Z,97892.00
2018-08-10T07:33:50.625Z,97894.00
2018-08-10T07:36:20.660Z,97894.00
2018-08-10T07:38:50.646Z,97896.00
2018-08-10T07:41:20.762Z,97892.00
2018-08-10T07:43:50.701Z,97895.00
2018-08-10T07:46:20.695Z,97898.00
2018-08-10T07:48:50.852Z,97896.00
2018-08-10T07:51:21.793Z,97895.00
2018-08-10T07:53:52.025Z,97893.00
2018-08-10T07:56:21.966Z,97887.00
2018-08-10T07:58:52.094Z,97885.00
2018-08-10T08:01:22.221Z,97890.00
2018-08-10T08:03:52.273Z,97893.00
2018-08-10T08:06:22.256Z,97890.00
2018-08-10T08:08:52.651Z,97895.00
2018-08-10T08:11:22.802Z,97901.00
2018-08-10T08:13:53.187Z,97895.00
2018-08-10T08:16:23.391Z,97900.00
2018-08-10T08:18:53.618Z,97906.00
2018-08-10T08:21:23.690Z,97904.00
2018-08-10T08:23:53.865Z,97905.00
2018-08-10T08:26:23.994Z,97909.00
2018-08-10T08:28:54.188Z,97907.00
2018-08-10T08:31:24.333Z,97903.00
2018-08-10T08:34:05.465Z,97906.00
2018-08-10T08:36:35.843Z,97898.00
2018-08-10T08:39:28.313Z,97900.00
2018-08-10T08:41:58.494Z,97904.00
2018-08-10T08:45:46.148Z,97905.00
2018-08-10T08:48:16.121Z,97905.00
2018-08-10T08:50:47.714Z,97900.00
2018-08-10T08:53:17.777Z,97906.00
2018-08-10T08:55:51.980Z,97901.00
2018-08-10T08:58:22.389Z,97895.00
2018-08-10T09:00:52.590Z,97896.00
2018-08-10T09:03:39.549Z,97900.00
2018-08-10T09:06:09.750Z,97900.00
2018-08-10T09:08:44.320Z,97893.00
2018-08-10T09:11:14.717Z,97901.00
2018-08-10T09:14:54.642Z,97891.00
2018-08-10T09:17:24.961Z,97882.00
2018-08-10T09:19:55.206Z,97885.00
2018-08-10T09:22:25.350Z,97884.00
2018-08-10T09:24:55.638Z,97875.00
2018-08-10T09:27:25.819Z,97876.00
2018-08-10T09:29:55.805Z,97878.00
2018-08-10T09:32:26.069Z,97884.00
2018-08-10T09:34:56.158Z,97880.00
2018-08-10T09:37:26.264Z,97883.00
2018-08-10T09:39:56.566Z,97881.00
2018-08-10T09:42:26.506Z,97876.00
2018-08-10T09:44:57.769Z,97879.00
2018-08-10T09:50:18.768Z,97878.00
2018-08-10T09:53:02.226Z,97882.00
2018-08-10T09:58:20.047Z,97880.00
2018-08-10T10:00:55.827Z,97876.00
2018-08-10T10:03:26.669Z,97863.00
2018-08-10T10:05:58.661Z,97866.00
2018-08-10T10:08:28.975Z,97860.00
2018-08-10T10:10:59.241Z,97867.00
2018-08-10T10:13:29.398Z,97857.00
2018-08-10T10:15:59.544Z,97861.00
2018-08-10T10:18:29.646Z,97856.00
2018-08-10T10:21:00.063Z,97850.00
2018-08-10T10:23:30.221Z,97849.00
2018-08-10T10:26:00.309Z,97848.00
2018-08-10T10:28:32.270Z,97848.00
2018-08-10T10:31:05.679Z,97847.00
2018-08-10T10:33:37.766Z,97850.00
2018-08-10T10:36:11.174Z,97849.00
2018-08-10T10:38:43.323Z,97843.00
2018-08-10T10:41:13.885Z,97847.00
2018-08-10T10:43:44.051Z,97833.00
2018-08-10T10:46:14.134Z,97835.00
2018-08-10T10:48:44.626Z,97840.00
2018-08-10T10:51:14.794Z,97838.00
2018-08-10T10:53:44.821Z,97837.00
2018-08-10T10:56:15.100Z,97834.00
2018-08-10T10:58:45.123Z,97835.00
2018-08-10T11:01:15.108Z,97834.00
2018-08-10T11:03:45.266Z,97826.00
2018-08-10T11:06:15.407Z,97835.00
2018-08-10T11:08:45.739Z,97832.00
2018-08-10T11:11:17.513Z,97823.00
2018-08-10T11:13:48.014Z,97825.00
2018-08-10T11:16:18.114Z,97824.00
2018-08-10T11:18:48.693Z,97818.00
2018-08-10T11:21:18.726Z,97823.00
2018-08-10T11:23:48.738Z,97816.00
2018-08-10T11:26:18.977Z,97823.00
2018-08-10T11:28:49.185Z,97818.00
2018-08-10T11:31:19.959Z,97813.00
2018-08-10T11:33:50.121Z,97805.00
2018-08-10T11:36:20.210Z,97805.00
2018-08-10T11:38:50.103Z,97801.00
2018-08-10T11:41:20.740Z,97803.00
2018-08-10T11:43:50.825Z,97800.00
2018-08-10T11:46:20.925Z,97801.00
2018-08-10T11:48:51.101Z,97803.00
2018-08-10T11:51:21.026Z,97800.00
2018-08-10T11:53:51.157Z,97799.00
2018-08-10T11:56:21.349Z,97796.00
2018-08-10T11:58:51.580Z,97798.00
2018-08-10T12:01:21.679Z,97800.00
2018-08-10T12:03:51.674Z,97800.00
2018-08-10T12:06:21.789Z,97793.00
2018-08-10T12:08:51.886Z,97792.00
2018-08-10T12:11:21.855Z,97788.00
2018-08-10T12:13:52.050Z,97791.00
2018-08-10T12:16:22.318Z,97789.00
2018-08-10T12:18:52.568Z,97791.00
2018-08-10T12:21:22.807Z,97785.00
2018-08-10T12:23:52.977Z,97785.00
2018-08-10T12:26:23.153Z,97781.00
2018-08-10T12:28:53.292Z,97778.00
2018-08-10T12:31:23.469Z,97773.00
2018-08-10T12:33:53.461Z,97775.00
2018-08-10T12:36:23.569Z,97775.00
2018-08-10T12:38:53.757Z,97770.00
2018-08-10T12:41:23.854Z,97769.00
2018-08-10T12:43:54.249Z,97766.00
2018-08-10T12:46:24.429Z,97765.00
2018-08-10T12:48:54.658Z,97765.00
2018-08-10T12:51:25.037Z,97770.00
2018-08-10T12:53:55.158Z,97761.00
2018-08-10T12:56:25.085Z,97768.00
2018-08-10T12:58:55.169Z,97765.00
2018-08-10T13:01:25.416Z,97768.00
2018-08-10T13:03:55.888Z,97762.00
2018-08-10T13:06:25.999Z,97755.00
2018-08-10T13:08:56.121Z,97761.00
2018-08-10T13:11:26.385Z,97762.00
2018-08-10T13:13:56.537Z,97753.00
2018-08-10T13:16:26.514Z,97754.00
2018-08-10T13:18:56.893Z,97760.00
2018-08-10T13:21:26.921Z,97759.00
2018-08-10T13:23:56.936Z,97760.00
2018-08-10T13:26:27.089Z,97764.00
2018-08-10T13:28:57.169Z,97758.00
2018-08-10T13:31:27.422Z,97754.00
2018-08-10T13:33:57.476Z,97743.00
2018-08-10T13:36:27.498Z,97744.00
2018-08-10T13:38:57.527Z,97744.00
2018-08-10T13:41:27.587Z,97746.00
2018-08-10T13:43:57.676Z,97753.00
2018-08-10T13:46:27.813Z,97751.00
2018-08-10T13:48:58.076Z,97754.00
2018-08-10T13:51:28.101Z,97742.00
2018-08-10T13:53:58.179Z,97741.00
2018-08-10T13:56:28.302Z,97744.00
2018-08-10T13:58:58.594Z,97737.00
2018-08-10T14:01:28.830Z,97734.00
2018-08-10T14:03:58.941Z,97729.00
2018-08-10T14:06:29.107Z,97724.00
2018-08-10T14:08:59.322Z,97718.00
2018-08-10T14:11:29.420Z,97730.00
2018-08-10T14:13:59.561Z,97731.00
2018-08-10T14:16:29.510Z,97735.00
2018-08-10T14:18:59.794Z,97733.00
2018-08-10T14:21:29.976Z,97731.00
2018-08-10T14:24:00.173Z,97729.00
2018-08-10T14:26:30.397Z,97728.00
2018-08-10T14:29:00.734Z,97725.00
2018-08-10T14:31:30.897Z,97719.00
2018-08-10T14:34:00.853Z,97717.00
2018-08-10T14:36:31.005Z,97717.00
2018-08-10T14:39:01.108Z,97708.00
2018-08-10T14:41:31.255Z,97707.00
2018-08-10T14:44:01.608Z,97706.00
2018-08-10T14:49:25.875Z,97704.00
2018-08-10T14:51:56.029Z,97705.00
2018-08-10T14:54:26.190Z,97701.00
2018-08-10T14:56:56.285Z,97702.00
2018-08-10T14:59:26.581Z,97699.00
2018-08-10T15:01:57.095Z,97698.00
2018-08-10T15:04:27.290Z,97695.00
2018-08-10T15:06:57.297Z,97689.00
2018-08-10T15:09:27.497Z,97685.00
2018-08-10T15:11:57.639Z,97680.00
2018-08-10T15:14:27.557Z,97685.00
2018-08-10T15:16:57.582Z,97679.00
2018-08-10T15:19:27.623Z,97674.00
2018-08-10T15:21:57.643Z,97669.00
2018-08-10T15:24:27.785Z,97668.00
2018-08-10T15:26:57.929Z,97667.00
2018-08-10T15:29:28.048Z,97675.00
2018-08-10T15:31:58.146Z,97670.00
2018-08-10T15:34:28.197Z,97673.00
2018-08-10T15:36:58.362Z,97673.00
2018-08-10T15:39:28.441Z,97675.00
2018-08-10T15:41:58.386Z,97672.00
2018-08-10T15:44:28.441Z,97669.00
2018-08-10T15:46:58.801Z,97676.00
2018-08-10T15:49:28.873Z,97674.00
2018-08-10T15:51:58.941Z,97672.00
2018-08-10T15:54:29.153Z,97676.00
2018-08-10T15:56:59.327Z,97675.00
2018-08-10T15:59:29.233Z,97676.00
2018-08-10T16:02:00.297Z,97673.00
2018-08-10T16:04:31.091Z,97672.00
2018-08-10T16:07:01.297Z,97664.00
2018-08-10T16:09:31.269Z,97669.00
2018-08-10T16:12:01.389Z,97665.00
2018-08-10T16:14:31.747Z,97666.00
2018-08-10T16:17:02.589Z,97663.00
2018-08-10T16:19:33.313Z,97656.00
2018-08-10T16:22:04.949Z,97655.00
2018-08-10T16:24:35.121Z,97649.00
2018-08-10T16:27:05.285Z,97646.00
2018-08-10T16:29:35.438Z,97647.00
2018-08-10T16:32:05.509Z,97644.00
2018-08-10T16:34:35.768Z,97645.00
2018-08-10T16:37:06.162Z,97645.00
2018-08-10T16:39:36.621Z,97648.00
2018-08-10T16:42:07.040Z,97646.00
2018-08-10T16:44:37.500Z,97645.00
2018-08-10T16:47:07.799Z,97641.00
2018-08-10T16:49:37.905Z,97650.00
2018-08-10T16:52:08.760Z,97644.00
2018-08-10T16:54:38.724Z,97643.00
2018-08-10T16:57:08.888Z,97648.00
2018-08-10T16:59:39.249Z,97648.00
2018-08-10T17:02:10.849Z,97640.00
2018-08-10T17:04:41.001Z,97644.00
2018-08-10T17:07:11.146Z,97643.00
2018-08-10T17:09:41.293Z,97639.00
2018-08-10T17:12:11.538Z,97639.00
2018-08-10T17:14:41.657Z,97632.00
2018-08-10T17:17:11.777Z,97633.00
2018-08-10T17:19:41.841Z,97639.00
2018-08-10T17:22:11.744Z,97637.00
2018-08-10T17:24:41.900Z,97634.00
2018-08-10T17:27:12.048Z,97634.00
2018-08-10T17:29:42.245Z,97635.00
2018-08-10T17:32:12.511Z,97639.00
2018-08-10T17:34:42.653Z,97631.00
2018-08-10T17:37:12.856Z,97633.00
2018-08-10T17:39:43.115Z,97627.00
2018-08-10T17:42:13.319Z,97628.00
2018-08-10T17:44:43.405Z,97630.00
2018-08-10T17:47:13.497Z,97631.00
2018-08-10T17:49:43.547Z,97633.00
2018-08-10T17:52:13.689Z,97632.00
2018-08-10T17:54:43.845Z,97628.00
2018-08-10T17:57:13.996Z,97635.00
2018-08-10T17:59:44.113Z,97636.00
2018-08-10T18:02:14.662Z,97634.00
2018-08-10T18:04:44.626Z,97638.00
2018-08-10T18:07:14.921Z,97638.00
2018-08-10T18:09:45.046Z,97635.00
2018-08-10T18:12:15.039Z,97634.00
2018-08-10T18:14:44.990Z,97638.00
2018-08-10T18:17:15.065Z,97645.00
2018-08-10T18:19:45.079Z,97644.00
2018-08-10T18:22:15.179Z,97641.00
2018-08-10T18:24:45.156Z,97644.00
2018-08-10T18:27:15.279Z,97646.00
2018-08-10T18:29:45.418Z,97648.00
2018-08-10T18:32:15.822Z,97649.00
2018-08-10T18:34:46.026Z,97649.00
2018-08-10T18:37:16.118Z,97646.00
2018-08-10T18:39:47.048Z,97655.00
2018-08-10T18:42:17.217Z,97651.00
2018-08-10T18:44:47.344Z,97650.00
2018-08-10T18:47:17.388Z,97651.00
2018-08-10T18:49:47.731Z,97657.00
2018-08-10T18:52:17.726Z,97652.00
2018-08-10T18:54:47.861Z,97657.00
2018-08-10T18:57:18.129Z,97654.00
2018-08-10T18:59:48.599Z,97653.00
2018-08-10T19:02:21.817Z,97653.00
2018-08-10T19:04:51.841Z,97652.00
2018-08-10T19:07:25.501Z,97657.00
2018-08-10T19:09:55.593Z,97661.00
2018-08-10T19:12:25.712Z,97654.00
2018-08-10T19:14:55.721Z,97657.00
2018-08-10T19:17:25.806Z,97665.00
2018-08-10T19:19:55.915Z,97665.00
2018-08-10T19:22:26.218Z,97669.00
2018-08-10T19:24:56.348Z,97669.00
2018-08-10T19:27:26.526Z,97664.00
2018-08-10T19:29:56.780Z,97667.00
2018-08-10T19:32:27.021Z,97668.00
2018-08-10T19:34:57.404Z,97679.00
2018-08-10T19:37:27.676Z,97682.00
2018-08-10T19:39:58.620Z,97685.00
2018-08-10T19:42:28.914Z,97686.00
2018-08-10T19:44:58.981Z,97686.00
2018-08-10T19:47:29.045Z,97687.00
2018-08-10T19:49:59.083Z,97690.00
2018-08-10T19:52:29.125Z,97684.00
2018-08-10T19:54:59.433Z,97689.00
2018-08-10T19:57:29.545Z,97687.00
2018-08-10T19:59:59.729Z,97688.00
2018-08-10T20:02:30.295Z,97685.00
2018-08-10T20:05:00.515Z,97687.00
2018-08-10T20:07:30.810Z,97691.00
2018-08-10T20:10:04.978Z,97686.00
2018-08-10T20:12:35.177Z,97700.00
2018-08-10T20:15:06.965Z,97699.00
2018-08-10T20:17:36.968Z,97699.00
2018-08-10T20:20:08.344Z,97701.00
2018-08-10T20:22:40.512Z,97700.00
2018-08-10T20:25:12.039Z,97696.00
2018-08-10T20:27:42.281Z,97693.00
2018-08-10T20:30:15.009Z,97688.00
2018-08-10T20:32:45.571Z,97695.00
2018-08-10T20:35:18.681Z,97694.00
2018-08-10T20:37:48.894Z,97699.00
2018-08-10T20:40:20.875Z,97701.00
2018-08-10T20:42:51.081Z,97691.00
2018-08-10T20:45:21.689Z,97688.00
2018-08-10T20:47:51.716Z,97697.00
2018-08-10T20:50:23.387Z,97695.00
2018-08-10T20:52:53.607Z,97697.00
2018-08-10T20:55:23.787Z,97701.00
2018-08-10T20:57:53.820Z,97705.00
2018-08-10T21:00:24.069Z,97699.00
2018-08-10T21:02:54.322Z,97704.00
2018-08-10T21:05:24.536Z,97700.00
2018-08-10T21:07:54.899Z,97703.00
2018-08-10T21:10:24.922Z,97704.00
2018-08-10T21:12:55.093Z,97707.00
2018-08-10T21:15:25.354Z,97709.00
2018-08-10T21:17:55.441Z,97707.00
2018-08-10T21:20:25.497Z,97708.00
2018-08-10T21:22:55.502Z,97705.00
2018-08-10T21:25:25.701Z,97708.00
2018-08-10T21:27:55.925Z,97706.00
2018-08-10T21:30:26.009Z,97710.00
2018-08-10T21:32:56.124Z,97707.00
2018-08-10T21:35:26.340Z,97710.00
2018-08-10T21:37:56.464Z,97703.00
2018-08-10T21:40:26.914Z,97698.00
2018-08-10T21:42:56.980Z,97704.00
2018-08-10T21:45:26.994Z,97699.00
2018-08-10T21:47:57.065Z,97704.00
2018-08-10T21:50:27.237Z,97705.00
2018-08-10T21:52:57.455Z,97700.00
2018-08-10T21:55:27.605Z,97708.00
2018-08-10T21:57:57.849Z,97707.00
2018-08-10T22:01:10.517Z,97705.00
2018-08-10T22:03:40.747Z,97716.00
2018-08-10T22:06:10.889Z,97714.00
2018-08-10T22:08:40.975Z,97714.00
2018-08-10T22:11:11.163Z,97714.00
2018-08-10T22:13:46.310Z,97720.00
2018-08-10T22:16:21.266Z,97713.00
2018-08-10T22:18:56.402Z,97720.00
2018-08-10T22:21:26.514Z,97720.00
2018-08-10T22:23:56.507Z,97712.00
2018-08-10T22:26:26.767Z,97720.00
2018-08-10T22:28:56.995Z,97719.00
2018-08-10T22:31:27.222Z,97718.00
2018-08-10T22:33:57.528Z,97726.00
2018-08-10T22:36:27.935Z,97720.00
2018-08-10T22:38:58.416Z,97719.00
2018-08-10T22:41:28.728Z,97724.00
2018-08-10T22:43:59.087Z,97721.00
2018-08-10T22:46:29.402Z,97716.00
2018-08-10T22:49:00.734Z,97722.00
2018-08-10T22:51:31.207Z,97716.00
2018-08-10T22:54:01.565Z,97714.00
2018-08-10T22:56:31.971Z,97718.00
2018-08-10T22:59:02.310Z,97716.00
2018-08-10T23:01:32.856Z,97718.00
2018-08-10T23:04:03.552Z,97715.00
2018-08-10T23:06:34.172Z,97716.00
2018-08-10T23:09:06.687Z,97715.00
2018-08-10T23:11:37.226Z,97717.00
2018-08-10T23:14:08.107Z,97712.00
2018-08-10T23:16:39.045Z,97710.00
2018-08-10T23:19:10.588Z,97706.00
2018-08-10T23:21:46.840Z,97719.00
2018-08-10T23:24:17.300Z,97723.00
2018-08-10T23:26:47.762Z,97721.00
2018-08-10T23:29:18.315Z,97714.00
2018-08-10T23:31:48.767Z,97720.00
2018-08-10T23:34:19.146Z,97717.00
2018-08-10T23:36:49.522Z,97713.00
2018-08-10T23:39:19.962Z,97711.00
2018-08-10T23:41:50.583Z,97710.00
2018-08-10T23:44:20.971Z,97709.00
2018-08-10T23:46:51.242Z,97716.00
2018-08-10T23:49:21.639Z,97714.00
2018-08-10T23:51:52.027Z,97716.00
2018-08-10T23:54:22.286Z,97713.00
2018-08-10T23:56:52.742Z,97706.00
2018-08-10T23:59:23.316Z,97708.00
